Time;durP1;ratioP1;P1;durP2;ratioP2;P2;SDS_P1;SDS_P2;PMS_P1;PMS_P2;Temp;Humidity;BMP_temperature;BMP_pressure;BME280_temperature;BME280_humidity;BME280_pressure;Samples;Min_cycle;Max_cycle;Signal;HPM_P1;HPM_P2
2022/09/29 00:02:06;;;;;;;5.50;4.20;;;;;;;;;;5072804;28;20443;-56
2022/09/29 00:04:33;;;;;;;4.70;4.30;;;;;;;;;;5073039;28;20439;-56
2022/09/29 00:07:00;;;;;;;6.13;4.27;;;;;;;;;;5072925;28;20470;-55
2022/09/29 00:09:27;;;;;;;5.40;4.90;;;;;;;;;;5072957;28;20946;-55
2022/09/29 00:11:55;;;;;;;4.57;4.20;;;;;;;;;;5072858;28;20447;-57
2022/09/29 00:14:22;;;;;;;4.80;4.40;;;;;;;;;;5072746;28;20455;-55
2022/09/29 00:16:50;;;;;;;5.53;5.00;;;;;;;;;;5072649;28;20806;-52
2022/09/29 00:19:18;;;;;;;5.23;4.83;;;;;;;;;;5072986;28;20554;-56
2022/09/29 00:21:45;;;;;;;5.43;4.93;;;;;;;;;;5072822;28;20510;-57
2022/09/29 00:24:12;;;;;;;5.20;4.80;;;;;;;;;;5072740;28;20473;-58
2022/09/29 00:26:39;;;;;;;7.23;4.90;;;;;;;;;;5072743;28;20443;-54
2022/09/29 00:29:06;;;;;;;4.53;4.23;;;;;;;;;;5072381;28;20515;-55
2022/09/29 00:31:33;;;;;;;5.10;4.60;;;;;;;;;;5072814;28;20446;-55
2022/09/29 00:34:02;;;;;;;5.07;4.67;;;;;;;;;;5072658;28;20455;-57
2022/09/29 00:36:29;;;;;;;5.03;4.63;;;;;;;;;;5072695;28;20454;-58
2022/09/29 00:38:57;;;;;;;4.30;4.00;;;;;;;;;;5072772;28;20534;-57
2022/09/29 00:41:25;;;;;;;5.57;5.10;;;;;;;;;;5072522;28;20454;-54
2022/09/29 00:43:54;;;;;;;4.33;4.03;;;;;;;;;;5072395;28;20455;-56
2022/09/29 00:46:24;;;;;;;5.10;4.60;;;;;;;;;;5072637;28;20451;-56
2022/09/29 00:48:51;;;;;;;5.70;5.20;;;;;;;;;;5072678;28;20483;-56
2022/09/29 00:51:20;;;;;;;5.03;4.63;;;;;;;;;;5072497;28;20447;-56
2022/09/29 00:53:48;;;;;;;5.37;4.97;;;;;;;;;;5072380;28;20478;-57
2022/09/29 00:56:17;;;;;;;5.50;5.00;;;;;;;;;;5072281;28;20448;-57
2022/09/29 00:58:46;;;;;;;5.03;4.63;;;;;;;;;;5072535;28;20447;-55
2022/09/29 01:01:13;;;;;;;4.70;4.30;;;;;;;;;;5074982;28;20535;-56
2022/09/29 01:03:42;;;;;;;5.90;5.30;;;;;;;;;;5076060;28;20950;-56
2022/09/29 01:06:11;;;;;;;4.93;4.50;;;;;;;;;;5076128;28;20543;-56
2022/09/29 01:08:41;;;;;;;5.17;4.77;;;;;;;;;;5075965;28;20482;-55
2022/09/29 01:11:10;;;;;;;5.23;4.83;;;;;;;;;;5076252;28;20815;-55
2022/09/29 01:13:38;;;;;;;5.30;4.73;;;;;;;;;;5076072;28;20449;-54
2022/09/29 01:16:05;;;;;;;4.80;4.40;;;;;;;;;;5076015;28;20447;-57
2022/09/29 01:18:32;;;;;;;5.30;4.80;;;;;;;;;;5075975;28;20887;-53
2022/09/29 01:21:02;;;;;;;5.03;4.63;;;;;;;;;;5075689;28;20830;-56
2022/09/29 01:23:53;;;;;;;7.47;5.00;;;;;;;;;;5075962;28;20452;-55
2022/09/29 01:26:34;;;;;;;5.00;4.63;;;;;;;;;;5060471;28;21012;-57
2022/09/29 01:29:18;;;;;;;4.97;4.57;;;;;;;;;;5075738;28;20514;-54
2022/09/29 01:31:54;;;;;;;4.60;4.20;;;;;;;;;;5075604;28;20486;-54
2022/09/29 01:34:26;;;;;;;4.23;3.93;;;;;;;;;;5075745;28;20825;-54
2022/09/29 01:36:57;;;;;;;4.70;4.40;;;;;;;;;;5075713;28;20799;-56
2022/09/29 01:39:26;;;;;;;6.70;4.13;;;;;;;;;;5075591;28;20448;-53
2022/09/29 01:41:55;;;;;;;4.60;4.30;;;;;;;;;;5075501;28;20447;-55
2022/09/29 01:44:24;;;;;;;4.10;3.80;;;;;;;;;;5075266;28;20440;-54
2022/09/29 01:46:54;;;;;;;4.70;4.30;;;;;;;;;;5075553;28;20447;-51
2022/09/29 01:49:22;;;;;;;3.97;3.67;;;;;;;;;;5075380;28;20479;-54
2022/09/29 01:51:53;;;;;;;4.17;3.87;;;;;;;;;;5075349;28;20447;-57
2022/09/29 01:54:23;;;;;;;4.43;4.13;;;;;;;;;;5075277;28;20550;-56
2022/09/29 01:56:52;;;;;;;4.90;4.50;;;;;;;;;;5075086;28;20813;-57
2022/09/29 01:59:22;;;;;;;5.73;5.20;;;;;;;;;;5075330;28;20448;-56
2022/09/29 02:01:50;;;;;;;5.80;5.20;;;;;;;;;;5075273;28;20454;-55
2022/09/29 02:04:20;;;;;;;5.70;5.20;;;;;;;;;;5075179;28;20520;-55
2022/09/29 02:06:51;;;;;;;6.17;5.60;;;;;;;;;;5075070;28;20880;-53
2022/09/29 02:09:21;;;;;;;7.23;6.27;;;;;;;;;;5074898;28;20479;-55
2022/09/29 02:11:51;;;;;;;6.63;6.03;;;;;;;;;;5074222;28;20534;-57
2022/09/29 02:14:20;;;;;;;7.13;6.43;;;;;;;;;;5075394;28;20473;-57
2022/09/29 02:16:48;;;;;;;6.33;5.80;;;;;;;;;;5074940;28;20444;-56
2022/09/29 02:19:17;;;;;;;7.90;7.10;;;;;;;;;;5074828;28;20454;-55
2022/09/29 02:21:46;;;;;;;7.00;6.30;;;;;;;;;;5074456;28;20552;-56
2022/09/29 02:24:13;;;;;;;7.20;6.50;;;;;;;;;;5074727;28;20443;-58
2022/09/29 02:26:41;;;;;;;6.67;5.97;;;;;;;;;;5074741;28;20880;-54
2022/09/29 02:29:09;;;;;;;8.47;6.80;;;;;;;;;;5074597;28;20510;-56
2022/09/29 02:31:37;;;;;;;7.33;6.67;;;;;;;;;;5074647;28;20821;-57
2022/09/29 02:34:04;;;;;;;7.70;6.90;;;;;;;;;;5074412;28;20456;-56
2022/09/29 02:36:34;;;;;;;7.07;6.13;;;;;;;;;;5074400;28;20486;-55
2022/09/29 02:39:06;;;;;;;8.50;6.87;;;;;;;;;;5074313;28;20954;-56
2022/09/29 02:41:36;;;;;;;7.60;6.67;;;;;;;;;;5074522;28;20447;-56
2022/09/29 02:44:12;;;;;;;8.97;8.13;;;;;;;;;;5074682;28;20444;-57
2022/09/29 02:46:43;;;;;;;8.53;7.40;;;;;;;;;;5074231;28;20596;-54
2022/09/29 02:49:20;;;;;;;8.40;7.57;;;;;;;;;;5074581;28;20475;-57
2022/09/29 02:51:49;;;;;;;8.70;7.20;;;;;;;;;;5074297;28;20450;-57
2022/09/29 02:54:29;;;;;;;8.07;7.23;;;;;;;;;;5073953;28;20981;-55
2022/09/29 02:56:59;;;;;;;9.30;7.67;;;;;;;;;;5074210;28;20875;-56
2022/09/29 02:59:28;;;;;;;9.40;8.40;;;;;;;;;;5073906;28;20462;-56
2022/09/29 03:01:56;;;;;;;8.43;7.10;;;;;;;;;;5074124;28;20444;-54
2022/09/29 03:04:24;;;;;;;7.43;6.40;;;;;;;;;;5073880;28;20450;-56
2022/09/29 03:06:51;;;;;;;7.90;7.10;;;;;;;;;;5073893;28;20538;-53
2022/09/29 03:09:18;;;;;;;9.20;8.20;;;;;;;;;;5073693;28;20485;-57
2022/09/29 03:11:46;;;;;;;8.73;7.83;;;;;;;;;;5073613;28;20458;-55
2022/09/29 03:14:13;;;;;;;8.00;6.90;;;;;;;;;;5073791;28;20454;-57
2022/09/29 03:16:41;;;;;;;7.37;6.67;;;;;;;;;;5073737;28;20808;-58
2022/09/29 03:19:08;;;;;;;8.90;8.00;;;;;;;;;;5073808;28;20450;-55
2022/09/29 03:21:35;;;;;;;7.80;6.90;;;;;;;;;;5073315;28;20987;-57
2022/09/29 03:24:02;;;;;;;10.23;7.87;;;;;;;;;;5073051;28;20493;-57
2022/09/29 03:26:29;;;;;;;9.50;8.13;;;;;;;;;;5073314;28;20798;-56
2022/09/29 03:28:59;;;;;;;9.90;8.20;;;;;;;;;;5073462;28;21062;-56
2022/09/29 03:31:26;;;;;;;10.13;7.30;;;;;;;;;;5073730;28;20479;-57
2022/09/29 03:33:53;;;;;;;8.93;8.10;;;;;;;;;;5073352;28;20863;-57
2022/09/29 03:36:19;;;;;;;8.87;7.97;;;;;;;;;;5073266;28;20450;-57
2022/09/29 03:38:46;;;;;;;10.53;8.23;;;;;;;;;;5073140;28;20542;-58
2022/09/29 03:41:14;;;;;;;8.90;8.00;;;;;;;;;;5073357;28;20439;-57
2022/09/29 03:43:41;;;;;;;9.97;8.47;;;;;;;;;;5073293;28;20443;-56
2022/09/29 03:46:09;;;;;;;9.40;7.80;;;;;;;;;;5073214;28;20497;-57
2022/09/29 03:48:36;;;;;;;9.50;8.63;;;;;;;;;;5073100;28;20479;-58
2022/09/29 03:51:03;;;;;;;10.23;8.23;;;;;;;;;;5073049;28;20508;-57
2022/09/29 03:53:30;;;;;;;10.00;8.13;;;;;;;;;;5072926;28;20494;-56
2022/09/29 03:55:57;;;;;;;11.37;9.30;;;;;;;;;;5073221;28;20507;-57
2022/09/29 03:58:24;;;;;;;10.07;8.80;;;;;;;;;;5073124;28;20904;-57
2022/09/29 04:00:51;;;;;;;9.60;8.60;;;;;;;;;;5072992;28;20577;-57
2022/09/29 04:03:20;;;;;;;9.50;8.33;;;;;;;;;;5073160;28;20447;-57
2022/09/29 04:05:47;;;;;;;8.50;7.60;;;;;;;;;;5072781;28;20538;-59
2022/09/29 04:08:15;;;;;;;8.57;7.67;;;;;;;;;;5072972;28;20448;-58
2022/09/29 04:10:42;;;;;;;9.00;7.63;;;;;;;;;;5072717;28;21018;-55
2022/09/29 04:13:09;;;;;;;9.70;8.50;;;;;;;;;;5072810;28;20461;-55
2022/09/29 04:15:36;;;;;;;9.90;8.23;;;;;;;;;;5072828;28;20490;-56
2022/09/29 04:18:04;;;;;;;10.80;8.70;;;;;;;;;;5073104;28;20525;-56
2022/09/29 04:20:33;;;;;;;9.70;8.63;;;;;;;;;;5072498;28;20455;-57
2022/09/29 04:23:00;;;;;;;11.47;8.83;;;;;;;;;;5073030;28;20458;-56
2022/09/29 04:25:27;;;;;;;10.70;9.10;;;;;;;;;;5072760;28;20455;-55
2022/09/29 04:27:54;;;;;;;10.00;8.03;;;;;;;;;;5072705;28;20464;-54
2022/09/29 04:30:21;;;;;;;9.80;8.80;;;;;;;;;;5072612;28;20483;-54
2022/09/29 04:32:48;;;;;;;10.67;9.67;;;;;;;;;;5072522;28;20530;-56
2022/09/29 04:35:15;;;;;;;12.00;9.43;;;;;;;;;;5073435;28;20453;-52
2022/09/29 04:37:43;;;;;;;13.43;9.90;;;;;;;;;;5076824;28;20447;-55
2022/09/29 04:40:11;;;;;;;10.90;9.73;;;;;;;;;;5076680;28;20880;-53
2022/09/29 04:42:38;;;;;;;11.70;9.67;;;;;;;;;;5076667;28;20455;-52
2022/09/29 04:45:05;;;;;;;13.17;11.10;;;;;;;;;;5076486;28;20806;-55
2022/09/29 04:47:32;;;;;;;15.23;10.40;;;;;;;;;;5076914;28;20443;-57
2022/09/29 04:49:59;;;;;;;12.90;10.57;;;;;;;;;;5076337;28;20939;-57
2022/09/29 04:52:26;;;;;;;10.60;9.50;;;;;;;;;;5076443;28;20447;-56
2022/09/29 04:54:54;;;;;;;14.63;11.20;;;;;;;;;;5076386;28;20447;-54
2022/09/29 04:57:21;;;;;;;14.97;9.93;;;;;;;;;;5076254;28;20777;-55
2022/09/29 04:59:50;;;;;;;13.47;10.90;;;;;;;;;;5076342;28;20450;-54
2022/09/29 05:02:17;;;;;;;11.87;10.30;;;;;;;;;;5075933;28;20509;-51
2022/09/29 05:04:46;;;;;;;10.80;9.50;;;;;;;;;;5076046;28;20459;-56
2022/09/29 05:07:13;;;;;;;8.80;7.90;;;;;;;;;;5076168;28;20931;-52
2022/09/29 05:09:40;;;;;;;11.07;8.80;;;;;;;;;;5075951;28;20478;-54
2022/09/29 05:12:08;;;;;;;13.83;9.07;;;;;;;;;;5075940;28;20537;-56
2022/09/29 05:14:35;;;;;;;13.90;9.90;;;;;;;;;;5075750;28;20473;-55
2022/09/29 05:17:02;;;;;;;10.67;7.60;;;;;;;;;;5075719;28;20542;-56
2022/09/29 05:19:30;;;;;;;14.73;7.77;;;;;;;;;;5076017;28;20462;-53
2022/09/29 05:21:57;;;;;;;12.07;8.10;;;;;;;;;;5075843;28;20529;-54
2022/09/29 05:24:24;;;;;;;13.60;9.20;;;;;;;;;;5075674;28;20534;-54
2022/09/29 05:26:51;;;;;;;14.67;9.03;;;;;;;;;;5075584;28;20494;-54
2022/09/29 05:29:20;;;;;;;11.10;9.20;;;;;;;;;;5076025;28;20489;-55
2022/09/29 05:31:47;;;;;;;15.77;11.60;;;;;;;;;;5075500;28;20947;-54
2022/09/29 05:34:14;;;;;;;29.43;13.87;;;;;;;;;;5075310;28;20447;-55
2022/09/29 05:36:41;;;;;;;20.10;10.87;;;;;;;;;;5075719;28;20455;-53
2022/09/29 05:39:08;;;;;;;14.70;12.03;;;;;;;;;;5075529;28;20553;-54
2022/09/29 05:41:35;;;;;;;46.57;13.90;;;;;;;;;;5075373;28;20982;-52
2022/09/29 05:44:02;;;;;;;19.80;11.40;;;;;;;;;;5075291;28;20834;-54
2022/09/29 05:46:30;;;;;;;31.50;10.93;;;;;;;;;;5074975;28;20451;-54
2022/09/29 05:48:58;;;;;;;19.00;11.40;;;;;;;;;;5075286;28;20443;-54
2022/09/29 05:51:26;;;;;;;12.90;9.67;;;;;;;;;;5075171;28;20965;-56
2022/09/29 05:53:53;;;;;;;12.50;9.77;;;;;;;;;;5075204;28;20806;-56
2022/09/29 05:56:21;;;;;;;10.63;8.13;;;;;;;;;;5075076;28;20450;-57
2022/09/29 05:58:49;;;;;;;12.10;9.10;;;;;;;;;;5075288;28;20440;-54
2022/09/29 06:01:17;;;;;;;13.90;8.83;;;;;;;;;;5075177;28;20470;-55
2022/09/29 06:03:45;;;;;;;18.60;10.30;;;;;;;;;;5074853;28;20914;-56
2022/09/29 06:06:13;;;;;;;18.80;12.80;;;;;;;;;;5075020;28;20483;-52
2022/09/29 06:08:40;;;;;;;19.40;14.47;;;;;;;;;;5074830;28;20952;-56
2022/09/29 06:11:08;;;;;;;22.60;15.60;;;;;;;;;;5075018;28;20830;-57
2022/09/29 06:13:35;;;;;;;20.03;15.17;;;;;;;;;;5074854;28;20454;-55
2022/09/29 06:16:02;;;;;;;19.70;14.63;;;;;;;;;;5074897;28;20458;-55
2022/09/29 06:18:30;;;;;;;16.67;12.50;;;;;;;;;;5074786;28;20447;-54
2022/09/29 06:21:02;;;;;;;17.43;13.20;;;;;;;;;;5074445;28;21008;-54
2022/09/29 06:23:29;;;;;;;17.40;13.17;;;;;;;;;;5074419;28;20451;-56
2022/09/29 06:25:56;;;;;;;17.37;11.20;;;;;;;;;;5074668;28;20452;-58
2022/09/29 06:28:23;;;;;;;13.77;11.63;;;;;;;;;;5074718;28;20462;-56
2022/09/29 06:30:51;;;;;;;15.37;11.27;;;;;;;;;;5074489;28;20479;-56
2022/09/29 06:33:19;;;;;;;20.30;12.50;;;;;;;;;;5074413;28;20451;-57
2022/09/29 06:38:32;;;;;;;15.53;11.53;;;;;;;;;;5074641;28;20538;-57
2022/09/29 06:41:00;;;;;;;15.80;11.87;;;;;;;;;;5074361;28;20451;-57
2022/09/29 06:43:27;;;;;;;15.03;13.07;;;;;;;;;;5074532;28;20479;-55
2022/09/29 06:45:54;;;;;;;18.40;13.00;;;;;;;;;;5074278;28;20443;-58
2022/09/29 06:48:21;;;;;;;16.30;13.20;;;;;;;;;;5074062;28;20798;-54
2022/09/29 06:50:48;;;;;;;17.30;11.30;;;;;;;;;;5074176;28;20479;-51
2022/09/29 06:53:14;;;;;;;17.60;12.73;;;;;;;;;;5073856;28;20973;-55
2022/09/29 06:55:43;;;;;;;14.73;12.80;;;;;;;;;;5073973;28;20448;-57
2022/09/29 06:58:10;;;;;;;17.43;13.27;;;;;;;;;;5073414;28;20813;-56
2022/09/29 07:00:38;;;;;;;16.07;13.40;;;;;;;;;;5073974;28;20447;-53
2022/09/29 07:03:05;;;;;;;15.63;12.73;;;;;;;;;;5073872;28;20542;-57
2022/09/29 07:05:32;;;;;;;16.30;12.07;;;;;;;;;;5073985;28;20447;-57
2022/09/29 07:07:59;;;;;;;16.93;13.20;;;;;;;;;;5073824;28;20505;-57
2022/09/29 07:10:26;;;;;;;14.73;11.47;;;;;;;;;;5073559;28;21062;-54
2022/09/29 07:12:54;;;;;;;17.10;13.63;;;;;;;;;;5073530;28;20447;-57
2022/09/29 07:15:21;;;;;;;17.67;13.23;;;;;;;;;;5073609;28;20494;-57
2022/09/29 07:17:51;;;;;;;17.10;13.17;;;;;;;;;;5073350;28;20447;-55
2022/09/29 07:20:18;;;;;;;19.20;13.70;;;;;;;;;;5073570;28;20455;-57
2022/09/29 07:22:47;;;;;;;14.77;12.47;;;;;;;;;;5073354;28;20481;-57
2022/09/29 07:25:13;;;;;;;16.43;12.67;;;;;;;;;;5073415;28;20447;-58
2022/09/29 07:27:40;;;;;;;16.73;12.43;;;;;;;;;;5073466;28;20452;-58
2022/09/29 07:30:10;;;;;;;18.57;12.30;;;;;;;;;;5073146;28;20525;-58
2022/09/29 07:32:37;;;;;;;14.87;12.50;;;;;;;;;;5073482;28;20490;-58
2022/09/29 07:35:04;;;;;;;17.73;12.70;;;;;;;;;;5073300;28;20455;-57
2022/09/29 07:37:31;;;;;;;17.23;12.90;;;;;;;;;;5072930;28;20934;-57
2022/09/29 07:39:59;;;;;;;16.80;12.37;;;;;;;;;;5072914;28;20451;-58
2022/09/29 07:42:28;;;;;;;18.20;13.30;;;;;;;;;;5072771;28;20447;-58
2022/09/29 07:44:55;;;;;;;14.80;12.53;;;;;;;;;;5072500;28;20482;-58
2022/09/29 07:47:23;;;;;;;21.43;14.77;;;;;;;;;;5073253;28;20451;-57
2022/09/29 07:49:50;;;;;;;14.93;12.40;;;;;;;;;;5073094;28;20486;-56
2022/09/29 07:52:17;;;;;;;17.70;13.60;;;;;;;;;;5073101;28;20451;-53
2022/09/29 07:54:44;;;;;;;16.97;13.33;;;;;;;;;;5072972;28;20448;-58
2022/09/29 07:57:11;;;;;;;15.33;13.73;;;;;;;;;;5072728;28;20451;-56
2022/09/29 07:59:38;;;;;;;18.13;15.57;;;;;;;;;;5073159;28;20451;-56
2022/09/29 08:02:06;;;;;;;19.10;14.97;;;;;;;;;;5072917;28;20454;-58
2022/09/29 08:04:34;;;;;;;18.17;13.53;;;;;;;;;;5072774;28;20473;-58
2022/09/29 08:07:01;;;;;;;18.60;14.17;;;;;;;;;;5072803;28;20451;-58
2022/09/29 08:09:28;;;;;;;16.20;12.63;;;;;;;;;;5071947;28;20448;-58
2022/09/29 08:11:55;;;;;;;14.20;12.30;;;;;;;;;;5072797;28;20539;-59
2022/09/29 08:14:22;;;;;;;17.80;12.67;;;;;;;;;;5072758;28;20803;-57
2022/09/29 08:16:49;;;;;;;16.93;13.30;;;;;;;;;;5072603;28;20448;-57
2022/09/29 08:19:16;;;;;;;13.63;11.33;;;;;;;;;;5072753;28;20475;-57
2022/09/29 08:21:48;;;;;;;18.60;14.40;;;;;;;;;;5072587;28;20475;-58
2022/09/29 08:24:16;;;;;;;16.77;13.60;;;;;;;;;;5072498;28;20505;-58
2022/09/29 08:26:43;;;;;;;20.83;13.60;;;;;;;;;;5072690;28;20773;-59
2022/09/29 08:29:10;;;;;;;17.17;13.67;;;;;;;;;;5072709;28;20448;-58
2022/09/29 08:31:37;;;;;;;15.67;13.13;;;;;;;;;;5072608;28;20483;-57
2022/09/29 08:34:04;;;;;;;16.23;13.67;;;;;;;;;;5072280;28;20538;-58
2022/09/29 08:36:31;;;;;;;16.37;13.13;;;;;;;;;;5072419;28;20447;-57
2022/09/29 08:38:59;;;;;;;17.10;14.33;;;;;;;;;;5072377;28;20814;-56
2022/09/29 08:41:32;;;;;;;16.17;13.67;;;;;;;;;;5072415;28;20462;-57
2022/09/29 08:44:01;;;;;;;19.30;14.97;;;;;;;;;;5072106;28;20852;-57
2022/09/29 08:46:30;;;;;;;17.57;14.27;;;;;;;;;;5069987;28;20455;-59
2022/09/29 08:48:57;;;;;;;15.70;12.73;;;;;;;;;;5062113;28;20456;-65
2022/09/29 08:51:27;;;;;;;16.90;12.80;;;;;;;;;;5051775;28;20480;-63
2022/09/29 08:53:56;;;;;;;15.77;12.60;;;;;;;;;;5068940;28;20574;-60
2022/09/29 08:56:25;;;;;;;16.67;12.17;;;;;;;;;;5072294;28;20826;-60
2022/09/29 08:58:52;;;;;;;15.57;12.57;;;;;;;;;;5072291;28;20486;-60
2022/09/29 09:01:22;;;;;;;16.17;12.90;;;;;;;;;;5068906;28;20451;-60
2022/09/29 09:03:55;;;;;;;15.20;11.80;;;;;;;;;;5069291;28;20458;-62
2022/09/29 09:06:25;;;;;;;16.33;11.40;;;;;;;;;;5070306;28;20455;-63
2022/09/29 09:08:59;;;;;;;12.77;11.40;;;;;;;;;;5071205;28;20454;-55
2022/09/29 09:11:34;;;;;;;13.60;12.20;;;;;;;;;;5070108;28;20493;-68
2022/09/29 09:14:07;;;;;;;14.20;11.70;;;;;;;;;;5071762;28;20806;-60
2022/09/29 09:16:40;;;;;;;13.87;11.50;;;;;;;;;;5068581;28;20530;-63
2022/09/29 09:19:19;;;;;;;13.63;11.27;;;;;;;;;;5065545;28;20452;-62
2022/09/29 09:21:49;;;;;;;13.70;11.70;;;;;;;;;;5073044;28;21072;-62
2022/09/29 09:24:18;;;;;;;16.80;11.60;;;;;;;;;;5075489;28;20439;-62
2022/09/29 09:26:47;;;;;;;12.23;10.93;;;;;;;;;;5074791;28;20455;-60
2022/09/29 09:29:17;;;;;;;15.87;12.30;;;;;;;;;;5074690;28;20458;-64
2022/09/29 09:31:47;;;;;;;11.47;10.23;;;;;;;;;;5074698;28;20993;-64
2022/09/29 09:34:17;;;;;;;11.43;10.27;;;;;;;;;;5073839;28;20443;-64
2022/09/29 09:36:46;;;;;;;12.50;10.80;;;;;;;;;;5075480;28;20449;-63
2022/09/29 09:39:14;;;;;;;11.97;10.50;;;;;;;;;;5074098;28;20542;-61
2022/09/29 09:41:42;;;;;;;13.30;10.93;;;;;;;;;;5070882;28;20451;-61
2022/09/29 09:44:14;;;;;;;18.43;12.87;;;;;;;;;;5082715;28;20543;-63
2022/09/29 09:46:44;;;;;;;14.33;11.43;;;;;;;;;;5075305;28;20448;-66
2022/09/29 09:49:15;;;;;;;13.90;11.37;;;;;;;;;;5069436;28;20460;-68
2022/09/29 09:51:46;;;;;;;12.30;10.37;;;;;;;;;;5073211;28;20474;-68
2022/09/29 09:54:15;;;;;;;14.07;10.37;;;;;;;;;;5074948;28;20938;-60
2022/09/29 09:56:53;;;;;;;13.77;9.83;;;;;;;;;;5075127;28;20795;-59
2022/09/29 09:59:27;;;;;;;14.33;10.70;;;;;;;;;;5073029;28;20462;-59
2022/09/29 10:01:54;;;;;;;12.47;10.40;;;;;;;;;;5074022;28;20457;-60
2022/09/29 10:04:23;;;;;;;13.33;10.70;;;;;;;;;;5071516;28;20530;-60
2022/09/29 10:06:50;;;;;;;10.83;9.67;;;;;;;;;;5075036;28;20455;-79
2022/09/29 10:09:17;;;;;;;10.30;9.30;;;;;;;;;;5058061;28;20448;-63
2022/09/29 10:11:44;;;;;;;9.83;8.93;;;;;;;;;;5054634;28;20477;-64
2022/09/29 10:14:13;;;;;;;11.70;10.50;;;;;;;;;;5063915;28;20466;-63
2022/09/29 10:16:45;;;;;;;10.30;9.30;;;;;;;;;;5071019;28;20789;-63
2022/09/29 10:19:12;;;;;;;10.17;9.17;;;;;;;;;;5070609;28;20884;-64
2022/09/29 10:21:40;;;;;;;10.13;9.10;;;;;;;;;;5071753;28;20560;-63
2022/09/29 10:24:20;;;;;;;11.80;10.33;;;;;;;;;;5073703;28;20806;-64
2022/09/29 10:26:50;;;;;;;12.87;9.97;;;;;;;;;;5073676;28;20458;-63
2022/09/29 10:29:23;;;;;;;10.60;9.60;;;;;;;;;;5073279;28;20443;-64
2022/09/29 10:32:06;;;;;;;11.00;9.70;;;;;;;;;;5064307;28;20525;-64
2022/09/29 10:34:34;;;;;;;11.03;9.93;;;;;;;;;;5073889;28;20443;-64
2022/09/29 10:37:02;;;;;;;9.60;8.70;;;;;;;;;;5074190;28;20446;-63
2022/09/29 10:39:33;;;;;;;11.20;9.40;;;;;;;;;;5073091;28;20974;-62
2022/09/29 10:42:03;;;;;;;13.83;8.53;;;;;;;;;;5072692;28;20447;-63
2022/09/29 10:44:31;;;;;;;11.23;10.13;;;;;;;;;;5070976;28;20843;-63
2022/09/29 10:46:58;;;;;;;9.67;8.77;;;;;;;;;;5073061;28;20451;-64
2022/09/29 10:49:27;;;;;;;9.27;8.37;;;;;;;;;;5073815;28;20538;-64
2022/09/29 10:51:56;;;;;;;9.17;8.37;;;;;;;;;;5072518;28;21073;-63
2022/09/29 10:54:25;;;;;;;10.57;9.57;;;;;;;;;;5072296;28;20488;-63
2022/09/29 10:56:53;;;;;;;9.13;8.30;;;;;;;;;;5071282;28;20193;-64
2022/09/29 10:59:20;;;;;;;8.23;7.50;;;;;;;;;;5069767;28;20456;-64
2022/09/29 11:01:49;;;;;;;7.90;7.20;;;;;;;;;;5073642;28;20885;-64
2022/09/29 11:04:18;;;;;;;8.20;7.50;;;;;;;;;;5072041;28;20451;-63
2022/09/29 11:06:46;;;;;;;7.90;7.10;;;;;;;;;;5068295;28;20536;-59
2022/09/29 11:09:27;;;;;;;8.57;7.88;;;;;;;;;;5068934;28;20791;-59
2022/09/29 11:11:55;;;;;;;9.83;6.83;;;;;;;;;;5072179;28;20221;-64
2022/09/29 11:14:25;;;;;;;9.63;7.43;;;;;;;;;;5066254;28;20954;-63
2022/09/29 11:16:53;;;;;;;7.07;6.47;;;;;;;;;;5073504;28;20455;-63
2022/09/29 11:19:20;;;;;;;7.60;7.00;;;;;;;;;;5071938;28;20804;-66
2022/09/29 11:22:14;;;;;;;7.23;6.43;;;;;;;;;;5073226;28;20554;-63
2022/09/29 11:24:59;;;;;;;7.67;6.90;;;;;;;;;;5072231;28;20453;-62
2022/09/29 11:27:31;;;;;;;8.03;7.23;;;;;;;;;;5070512;28;20439;-61
2022/09/29 11:30:01;;;;;;;8.47;7.77;;;;;;;;;;5071027;28;20466;-61
2022/09/29 11:32:35;;;;;;;8.63;7.83;;;;;;;;;;5072524;28;20474;-61
2022/09/29 11:35:16;;;;;;;7.20;6.60;;;;;;;;;;5072671;28;20504;-65
2022/09/29 11:37:54;;;;;;;7.60;6.80;;;;;;;;;;5073362;28;20542;-67
2022/09/29 11:40:26;;;;;;;6.40;5.90;;;;;;;;;;5073064;28;20504;-61
2022/09/29 11:43:00;;;;;;;6.20;5.70;;;;;;;;;;5072922;28;20448;-61
2022/09/29 11:45:33;;;;;;;6.50;6.00;;;;;;;;;;5072781;28;20446;-61
2022/09/29 11:48:24;;;;;;;7.63;5.97;;;;;;;;;;5068020;28;20459;-61
2022/09/29 11:50:57;;;;;;;6.50;5.90;;;;;;;;;;5072443;28;20812;-62
2022/09/29 11:53:31;;;;;;;5.73;5.30;;;;;;;;;;5066971;28;20463;-61
2022/09/29 11:56:04;;;;;;;6.20;5.70;;;;;;;;;;5052737;28;20486;-61
2022/09/29 11:58:39;;;;;;;5.93;5.40;;;;;;;;;;5052705;28;20940;-61
2022/09/29 12:01:13;;;;;;;6.13;5.50;;;;;;;;;;5052817;28;20531;-60
2022/09/29 12:03:46;;;;;;;6.90;5.60;;;;;;;;;;5052301;28;20455;-61
2022/09/29 12:06:22;;;;;;;4.93;4.53;;;;;;;;;;5054626;28;20912;-61
2022/09/29 12:08:57;;;;;;;6.40;5.80;;;;;;;;;;5070263;28;20436;-60
2022/09/29 12:11:26;;;;;;;4.80;4.40;;;;;;;;;;5072355;28;20473;-61
2022/09/29 12:13:56;;;;;;;5.20;4.70;;;;;;;;;;5072833;28;20448;-62
2022/09/29 12:16:24;;;;;;;5.17;4.67;;;;;;;;;;5072757;28;20447;-61
2022/09/29 12:18:53;;;;;;;4.00;3.70;;;;;;;;;;5072659;28;20447;-61
2022/09/29 12:21:25;;;;;;;3.60;3.40;;;;;;;;;;5072481;28;20826;-62
2022/09/29 12:23:54;;;;;;;3.93;3.63;;;;;;;;;;5072392;28;20947;-62
2022/09/29 12:26:21;;;;;;;4.20;3.90;;;;;;;;;;5072217;28;20454;-62
2022/09/29 12:28:51;;;;;;;5.60;3.40;;;;;;;;;;5072616;28;20802;-62
2022/09/29 12:31:21;;;;;;;3.63;3.33;;;;;;;;;;5072387;28;21043;-62
2022/09/29 12:33:50;;;;;;;4.47;4.07;;;;;;;;;;5072482;28;20447;-62
2022/09/29 12:39:20;;;;;;;3.50;3.20;;;;;;;;;;5056756;28;20440;-62
2022/09/29 12:41:49;;;;;;;4.00;3.70;;;;;;;;;;5072525;28;20448;-62
2022/09/29 12:44:20;;;;;;;4.27;3.83;;;;;;;;;;5072383;28;20435;-62
2022/09/29 12:46:50;;;;;;;4.60;4.20;;;;;;;;;;5071585;28;20447;-62
2022/09/29 12:49:20;;;;;;;4.60;4.20;;;;;;;;;;5072641;28;20454;-62
2022/09/29 12:51:48;;;;;;;4.37;4.07;;;;;;;;;;5072308;28;20521;-62
2022/09/29 12:54:19;;;;;;;3.93;3.63;;;;;;;;;;5071809;28;20493;-62
2022/09/29 12:56:48;;;;;;;3.80;3.60;;;;;;;;;;5073498;28;20834;-62
2022/09/29 12:59:22;;;;;;;3.30;3.10;;;;;;;;;;5075617;28;20537;-62
2022/09/29 13:01:53;;;;;;;3.23;2.93;;;;;;;;;;5073212;28;20839;-62
2022/09/29 13:04:39;;;;;;;2.67;2.47;;;;;;;;;;5073428;28;20757;-62
2022/09/29 13:07:17;;;;;;;2.63;2.53;;;;;;;;;;5073816;28;20473;-62
2022/09/29 13:09:53;;;;;;;2.23;2.10;;;;;;;;;;5075695;28;20453;-62
2022/09/29 13:12:37;;;;;;;2.30;2.20;;;;;;;;;;5076119;28;20841;-62
2022/09/29 13:15:22;;;;;;;2.00;1.90;;;;;;;;;;5076031;28;20443;-62
2022/09/29 13:18:02;;;;;;;3.20;3.00;;;;;;;;;;5075705;28;20447;-62
2022/09/29 13:20:50;;;;;;;2.10;1.80;;;;;;;;;;5075429;28;20520;-63
2022/09/29 13:23:25;;;;;;;2.77;2.57;;;;;;;;;;5071491;28;20450;-62
2022/09/29 13:25:58;;;;;;;2.47;2.27;;;;;;;;;;5075808;28;20447;-62
2022/09/29 13:28:30;;;;;;;2.47;2.37;;;;;;;;;;5075723;28;20858;-63
2022/09/29 13:30:59;;;;;;;2.10;2.00;;;;;;;;;;5075905;28;20458;-62
2022/09/29 13:33:27;;;;;;;2.27;2.17;;;;;;;;;;5075581;28;20827;-62
2022/09/29 13:35:54;;;;;;;3.30;3.10;;;;;;;;;;5075625;28;20451;-62
2022/09/29 13:38:22;;;;;;;2.40;2.30;;;;;;;;;;5075913;28;20447;-62
2022/09/29 13:41:07;;;;;;;2.23;2.07;;;;;;;;;;5075753;28;20454;-62
2022/09/29 13:43:39;;;;;;;2.10;2.00;;;;;;;;;;5075610;28;20534;-62
2022/09/29 13:46:21;;;;;;;2.27;2.03;;;;;;;;;;5075388;28;20451;-62
2022/09/29 13:48:52;;;;;;;2.13;2.03;;;;;;;;;;5075110;28;20822;-62
2022/09/29 13:51:28;;;;;;;3.13;2.37;;;;;;;;;;5075328;28;20450;-62
2022/09/29 13:54:13;;;;;;;2.30;2.03;;;;;;;;;;5075487;28;20530;-62
2022/09/29 13:56:40;;;;;;;2.10;1.90;;;;;;;;;;5075400;28;20469;-62
2022/09/29 13:59:15;;;;;;;2.90;1.90;;;;;;;;;;5075238;28;20534;-62
2022/09/29 14:01:42;;;;;;;2.07;1.97;;;;;;;;;;5075095;28;20934;-62
2022/09/29 14:04:28;;;;;;;1.60;1.50;;;;;;;;;;5075248;28;20455;-62
2022/09/29 14:06:59;;;;;;;3.43;2.00;;;;;;;;;;5073642;28;20784;-62
2022/09/29 14:09:32;;;;;;;2.00;1.60;;;;;;;;;;5074854;28;20450;-62
2022/09/29 14:12:01;;;;;;;1.50;1.40;;;;;;;;;;5074938;28;20483;-62
2022/09/29 14:14:31;;;;;;;2.37;1.60;;;;;;;;;;5075031;28;20458;-62
2022/09/29 14:17:04;;;;;;;1.70;1.60;;;;;;;;;;5075084;28;20451;-62
2022/09/29 14:19:40;;;;;;;1.50;1.40;;;;;;;;;;5074978;28;20448;-62
2022/09/29 14:22:30;;;;;;;3.87;1.27;;;;;;;;;;5074687;28;20470;-62
2022/09/29 14:25:22;;;;;;;1.70;1.60;;;;;;;;;;5074409;28;20482;-62
2022/09/29 14:28:00;;;;;;;1.53;1.20;;;;;;;;;;5074577;28;20453;-62
2022/09/29 14:30:39;;;;;;;1.67;1.53;;;;;;;;;;5074713;28;20959;-62
2022/09/29 14:33:10;;;;;;;1.60;1.50;;;;;;;;;;5074372;28;20483;-62
2022/09/29 14:35:38;;;;;;;2.93;2.00;;;;;;;;;;5074811;28;20479;-62
2022/09/29 14:38:07;;;;;;;2.50;1.80;;;;;;;;;;5074586;28;20443;-62
2022/09/29 14:40:34;;;;;;;2.20;2.10;;;;;;;;;;5074558;28;20451;-62
2022/09/29 14:43:06;;;;;;;1.67;1.57;;;;;;;;;;5074414;28;20450;-62
2022/09/29 14:54:05;;;;;;;3.47;2.50;;;;;;;;;;5074094;28;20513;-62
2022/09/29 14:56:39;;;;;;;2.77;2.33;;;;;;;;;;5074306;28;20803;-62
2022/09/29 14:59:12;;;;;;;2.27;2.03;;;;;;;;;;5074315;28;20450;-62
2022/09/29 15:01:42;;;;;;;2.20;2.10;;;;;;;;;;5074043;28;20458;-62
2022/09/29 15:04:12;;;;;;;3.57;2.00;;;;;;;;;;5073804;28;20447;-62